createdAt,value
2022-11-16T00:23:49.899Z,0.00
2022-11-16T00:23:56.032Z,0.00
2022-11-16T00:24:56.046Z,0.00
2022-11-16T00:25:56.143Z,0.00
2022-11-16T02:08:07.443Z,0.00
2022-11-16T02:08:13.726Z,0.00
2022-11-16T02:09:13.750Z,0.00
2022-11-16T02:10:13.798Z,0.00
2022-11-16T02:11:13.527Z,0.00
2022-11-16T02:12:13.514Z,0.00
2022-11-16T02:13:13.350Z,0.00
2022-11-16T06:05:04.941Z,0.00
2022-11-16T06:06:05.938Z,0.00
2022-11-16T06:07:05.922Z,0.00
2022-11-16T06:08:05.926Z,0.00
2022-11-16T06:09:05.877Z,0.00
2022-11-16T06:10:05.873Z,0.00
2022-11-16T06:11:05.872Z,0.00
2022-11-16T06:12:07.078Z,0.00
2022-11-16T06:13:05.854Z,0.00
2022-11-16T06:14:05.850Z,0.00
2022-11-16T06:15:05.847Z,0.00
2022-11-16T06:16:05.841Z,0.00
2022-11-16T06:17:05.793Z,0.00
2022-11-16T06:18:05.798Z,0.00
2022-11-16T06:19:05.779Z,0.00
2022-11-16T06:20:05.788Z,0.00
2022-11-16T06:21:05.758Z,0.00
2022-11-16T06:22:05.783Z,0.00
2022-11-16T06:23:05.748Z,0.00
2022-11-16T06:24:05.735Z,0.00
2022-11-16T06:25:05.699Z,0.00
2022-11-16T06:26:05.723Z,0.00
2022-11-16T06:27:05.693Z,0.00
2022-11-16T06:28:08.049Z,0.00
2022-11-16T06:29:05.715Z,0.00
2022-11-16T06:30:05.608Z,0.00
2022-11-16T06:31:05.603Z,0.00
2022-11-16T06:32:05.604Z,0.00
2022-11-16T06:33:05.572Z,0.00
2022-11-16T06:34:05.595Z,0.00
2022-11-16T06:35:05.550Z,0.00
2022-11-16T06:36:05.560Z,0.00
2022-11-16T06:37:05.542Z,0.00
2022-11-16T06:38:05.605Z,0.00
2022-11-16T06:39:05.502Z,0.00
2022-11-16T06:40:05.568Z,0.00
2022-11-16T06:41:05.486Z,0.00
2022-11-16T06:42:05.486Z,0.00
2022-11-16T06:43:05.461Z,0.00
2022-11-16T06:44:05.474Z,0.00
2022-11-16T06:45:05.466Z,0.00
2022-11-16T06:46:05.450Z,0.00
2022-11-16T06:47:05.427Z,0.00
2022-11-16T06:48:05.414Z,0.00
2022-11-16T06:49:05.431Z,0.00
2022-11-16T06:50:05.412Z,0.00
2022-11-16T06:51:07.566Z,0.00
2022-11-16T06:52:05.418Z,0.00
2022-11-16T06:53:05.371Z,0.00
2022-11-16T06:54:05.376Z,0.00
2022-11-16T06:55:05.362Z,0.00
2022-11-16T06:56:05.360Z,0.00
2022-11-16T06:57:05.343Z,0.00
2022-11-16T06:58:05.348Z,0.00
2022-11-16T06:59:05.325Z,0.00
2022-11-16T07:00:05.315Z,0.00
2022-11-16T07:01:05.295Z,0.00
2022-11-16T07:02:05.341Z,0.00
2022-11-16T07:03:05.345Z,0.00
2022-11-16T07:04:05.312Z,0.00
2022-11-16T07:05:05.291Z,0.00
2022-11-16T07:06:05.268Z,0.00
2022-11-16T07:07:05.256Z,0.00
2022-11-16T07:08:05.269Z,0.00
2022-11-16T07:09:05.212Z,0.00
2022-11-16T07:10:05.225Z,0.00
2022-11-16T07:11:05.214Z,0.00
2022-11-16T07:12:05.290Z,0.00
2022-11-16T07:13:05.164Z,0.00
2022-11-16T07:14:05.209Z,0.00
2022-11-16T07:15:05.225Z,0.00
2022-11-16T07:16:05.205Z,0.00
2022-11-16T07:17:09.345Z,0.00
2022-11-16T07:18:05.188Z,0.00
2022-11-16T07:19:05.098Z,0.00
2022-11-16T07:20:05.135Z,0.00
2022-11-16T07:21:05.968Z,0.00
2022-11-16T07:22:05.105Z,0.00
2022-11-16T07:23:07.075Z,0.00
2022-11-16T07:24:05.110Z,0.00
2022-11-16T07:25:05.075Z,0.00
2022-11-16T07:26:05.080Z,0.00
2022-11-16T07:27:05.087Z,0.00
2022-11-16T07:28:05.124Z,0.00
2022-11-16T07:29:05.078Z,0.00
2022-11-16T07:30:05.160Z,0.00
2022-11-16T07:31:05.090Z,0.00
2022-11-16T07:32:05.730Z,0.00
2022-11-16T07:33:04.988Z,0.00
2022-11-16T07:34:05.022Z,0.00
2022-11-16T07:35:04.985Z,0.00
2022-11-16T07:36:04.959Z,0.00
2022-11-16T07:37:04.982Z,0.00
2022-11-16T07:38:05.729Z,0.00
2022-11-16T07:39:04.922Z,0.00
2022-11-16T07:40:05.882Z,0.00
2022-11-16T07:41:04.889Z,5.62
2022-11-16T07:42:08.915Z,5.62
2022-11-16T07:43:04.862Z,5.62
2022-11-16T07:44:08.373Z,5.62
2022-11-16T07:45:04.901Z,5.62
2022-11-16T07:46:45.370Z,5.62
2022-11-16T07:47:04.819Z,5.62
2022-11-16T07:48:04.890Z,5.62
2022-11-16T07:49:11.203Z,5.62
2022-11-16T07:50:04.816Z,5.62
2022-11-16T07:51:04.795Z,5.62
2022-11-16T07:52:04.824Z,5.62
2022-11-16T07:53:04.823Z,11.25
2022-11-16T07:54:04.796Z,11.25
2022-11-16T07:55:05.036Z,5.62
2022-11-16T07:56:04.804Z,5.62
2022-11-16T07:57:04.720Z,5.62
2022-11-16T07:58:04.961Z,11.25
2022-11-16T07:59:04.728Z,11.25
2022-11-16T08:00:04.700Z,11.25
2022-11-16T08:01:04.773Z,11.25
2022-11-16T08:02:04.735Z,11.25
2022-11-16T08:03:04.677Z,11.25
2022-11-16T08:04:04.701Z,11.25
2022-11-16T08:05:04.676Z,11.25
2022-11-16T08:06:04.656Z,5.62
2022-11-16T08:07:04.678Z,11.25
2022-11-16T08:08:04.589Z,11.25
2022-11-16T08:09:04.650Z,11.25
2022-11-16T08:10:04.668Z,11.25
2022-11-16T08:11:05.457Z,11.25
2022-11-16T08:12:04.654Z,11.25
2022-11-16T08:13:04.577Z,11.25
2022-11-16T08:14:04.573Z,11.25
2022-11-16T08:15:04.577Z,5.62
2022-11-16T08:16:04.866Z,5.62
2022-11-16T08:17:04.549Z,5.62
2022-11-16T08:18:04.502Z,11.25
2022-11-16T08:19:04.502Z,5.62
2022-11-16T08:20:04.577Z,5.62
2022-11-16T08:21:04.497Z,5.62
2022-11-16T08:22:04.485Z,11.25
2022-11-16T08:23:04.469Z,11.25
2022-11-16T08:24:04.470Z,11.25
2022-11-16T08:25:04.665Z,11.25
2022-11-16T08:26:04.429Z,11.25
2022-11-16T08:27:04.426Z,11.25
2022-11-16T08:28:04.415Z,11.25
2022-11-16T08:29:20.013Z,11.25
2022-11-16T08:30:04.377Z,11.25
2022-11-16T08:31:04.415Z,5.62
2022-11-16T08:32:07.943Z,5.62
2022-11-16T08:33:04.365Z,11.25
2022-11-16T08:34:04.322Z,11.25
2022-11-16T08:35:04.570Z,11.25
2022-11-16T08:36:07.074Z,5.62
2022-11-16T08:37:04.347Z,5.62
2022-11-16T08:38:04.318Z,5.62
2022-11-16T08:39:04.565Z,5.62
2022-11-16T08:40:04.283Z,5.62
2022-11-16T08:41:04.279Z,5.62
2022-11-16T08:42:04.257Z,5.62
2022-11-16T08:43:04.474Z,5.62
2022-11-16T08:44:04.278Z,5.62
2022-11-16T08:45:04.274Z,5.62
2022-11-16T08:46:04.211Z,5.62
2022-11-16T08:47:04.214Z,11.25
2022-11-16T08:48:04.550Z,11.25
2022-11-16T08:49:04.237Z,5.62
2022-11-16T08:50:04.232Z,5.62
2022-11-16T08:51:20.300Z,5.62
2022-11-16T08:52:04.153Z,5.62
2022-11-16T08:53:04.240Z,5.62
2022-11-16T08:54:04.128Z,5.62
2022-11-16T08:55:04.156Z,11.25
2022-11-16T08:56:04.122Z,16.88
2022-11-16T08:57:04.125Z,16.88
2022-11-16T08:58:04.100Z,11.25
2022-11-16T08:59:04.068Z,16.88
2022-11-16T09:00:04.083Z,16.88
2022-11-16T09:01:04.130Z,16.88
2022-11-16T09:02:04.105Z,22.50
2022-11-16T09:03:04.065Z,22.50
2022-11-16T09:04:04.051Z,28.12
2022-11-16T09:05:04.025Z,33.75
2022-11-16T09:06:04.066Z,39.38
2022-11-16T09:07:04.123Z,39.38
2022-11-16T09:08:04.262Z,33.75
2022-11-16T09:09:03.984Z,28.12
2022-11-16T09:10:04.012Z,33.75
2022-11-16T09:11:03.986Z,28.12
2022-11-16T09:12:03.974Z,33.75
2022-11-16T09:13:03.962Z,39.38
2022-11-16T09:14:03.972Z,45.00
2022-11-16T09:15:03.950Z,39.38
2022-11-16T09:16:03.960Z,45.00
2022-11-16T09:17:03.949Z,50.62
2022-11-16T09:18:03.953Z,45.00
2022-11-16T09:19:03.909Z,39.38
2022-11-16T09:20:03.894Z,45.00
2022-11-16T09:21:03.875Z,45.00
2022-11-16T09:22:03.865Z,45.00
2022-11-16T09:23:03.858Z,39.38
2022-11-16T09:24:03.811Z,45.00
2022-11-16T09:25:03.853Z,45.00
2022-11-16T09:26:03.845Z,45.00
2022-11-16T09:27:03.815Z,39.38
2022-11-16T09:28:04.032Z,39.38
2022-11-16T09:29:03.818Z,50.62
2022-11-16T09:30:03.790Z,45.00
2022-11-16T09:31:03.794Z,39.38
2022-11-16T09:32:03.780Z,45.00
2022-11-16T09:33:03.769Z,45.00
2022-11-16T09:34:03.701Z,45.00
2022-11-16T09:35:03.727Z,45.00
2022-11-16T09:36:03.750Z,45.00
2022-11-16T09:37:03.693Z,45.00
2022-11-16T09:38:03.694Z,45.00
2022-11-16T09:39:30.635Z,45.00
2022-11-16T09:40:03.659Z,45.00
2022-11-16T09:41:03.920Z,50.62
2022-11-16T09:42:03.634Z,45.00
2022-11-16T09:43:03.640Z,50.62
2022-11-16T09:44:03.899Z,50.62
2022-11-16T09:45:03.635Z,56.25
2022-11-16T09:46:03.613Z,56.25
2022-11-16T09:47:03.595Z,56.25
2022-11-16T09:48:03.601Z,56.25
2022-11-16T09:49:03.580Z,56.25
2022-11-16T09:50:04.327Z,61.88
2022-11-16T09:51:03.551Z,50.62
2022-11-16T09:52:03.594Z,50.62
2022-11-16T09:53:03.588Z,50.62
2022-11-16T09:54:03.818Z,50.62
2022-11-16T09:55:03.510Z,45.00
2022-11-16T09:56:04.278Z,45.00
2022-11-16T09:57:07.965Z,45.00
2022-11-16T09:58:03.527Z,50.62
2022-11-16T09:59:03.486Z,50.62
2022-11-16T10:00:03.762Z,50.62
2022-11-16T10:01:03.485Z,50.62
2022-11-16T10:02:03.449Z,56.25
2022-11-16T10:03:03.494Z,56.25
2022-11-16T10:04:03.453Z,56.25
2022-11-16T10:05:03.444Z,50.62
2022-11-16T10:06:03.449Z,50.62
2022-11-16T10:07:03.662Z,50.62
2022-11-16T10:08:03.627Z,67.50
2022-11-16T10:09:04.301Z,67.50
2022-11-16T10:10:03.345Z,50.62
2022-11-16T10:11:03.388Z,45.00
2022-11-16T10:12:04.258Z,45.00
2022-11-16T10:13:03.334Z,50.62
2022-11-16T10:14:04.414Z,56.25
2022-11-16T10:15:03.308Z,56.25
2022-11-16T10:16:03.343Z,56.25
2022-11-16T10:17:03.318Z,45.00
2022-11-16T10:18:03.302Z,45.00
2022-11-16T10:19:03.317Z,50.62
2022-11-16T10:20:03.255Z,50.62
2022-11-16T10:21:03.878Z,50.62
2022-11-16T10:22:07.087Z,50.62
2022-11-16T10:23:07.370Z,50.62
2022-11-16T10:24:03.465Z,39.38
2022-11-16T10:25:03.219Z,50.62
2022-11-16T10:26:03.289Z,56.25
2022-11-16T10:27:03.204Z,61.88
2022-11-16T10:28:03.472Z,61.88
2022-11-16T10:29:03.162Z,61.88
2022-11-16T10:30:03.150Z,61.88
2022-11-16T10:31:03.167Z,67.50
2022-11-16T10:32:19.210Z,67.50
2022-11-16T10:33:08.071Z,67.50
2022-11-16T10:34:03.134Z,67.50
2022-11-16T10:35:03.145Z,67.50
2022-11-16T10:36:03.357Z,67.50
2022-11-16T10:37:03.121Z,73.12
2022-11-16T10:38:03.063Z,67.50
2022-11-16T10:39:03.185Z,61.88
2022-11-16T10:40:03.099Z,61.88
2022-11-16T10:41:03.062Z,61.88
2022-11-16T10:42:07.271Z,61.88
2022-11-16T10:43:03.048Z,61.88
2022-11-16T10:44:03.056Z,61.88
2022-11-16T10:45:02.982Z,67.50
2022-11-16T10:46:03.043Z,61.88
2022-11-16T10:47:03.277Z,61.88
2022-11-16T10:48:02.995Z,61.88
2022-11-16T10:49:02.973Z,61.88
2022-11-16T10:50:02.954Z,61.88
2022-11-16T10:51:02.916Z,56.25
2022-11-16T10:52:03.896Z,56.25
2022-11-16T10:53:03.912Z,50.62
2022-11-16T10:54:02.905Z,50.62
2022-11-16T10:55:02.912Z,45.00
2022-11-16T10:56:02.888Z,50.62
2022-11-16T10:57:02.885Z,45.00
2022-11-16T10:58:02.874Z,33.75
2022-11-16T10:59:02.860Z,28.12
2022-11-16T11:00:02.845Z,33.75
2022-11-16T11:01:02.911Z,50.62
2022-11-16T11:02:02.862Z,50.62
2022-11-16T11:03:02.846Z,56.25
2022-11-16T11:04:03.009Z,39.38
2022-11-16T11:05:02.824Z,33.75
2022-11-16T11:06:02.843Z,50.62
2022-11-16T11:07:02.835Z,50.62
2022-11-16T11:08:02.982Z,50.62
2022-11-16T11:09:02.808Z,50.62
2022-11-16T11:10:02.731Z,50.62
2022-11-16T11:11:02.877Z,50.62
2022-11-16T11:12:02.806Z,28.12
2022-11-16T11:13:02.766Z,28.12
2022-11-16T11:14:02.754Z,28.12
2022-11-16T11:15:02.717Z,28.12
2022-11-16T11:16:02.686Z,28.12
2022-11-16T11:17:02.698Z,28.12
2022-11-16T11:18:02.670Z,28.12
2022-11-16T11:19:02.628Z,28.12
2022-11-16T11:20:02.656Z,28.12
2022-11-16T11:21:02.610Z,28.12
2022-11-16T11:22:02.669Z,28.12
2022-11-16T11:23:02.622Z,33.75
2022-11-16T11:24:37.349Z,33.75
2022-11-16T11:25:02.650Z,39.38
2022-11-16T11:26:02.551Z,50.62
2022-11-16T11:27:02.556Z,45.00
2022-11-16T11:28:02.832Z,45.00
2022-11-16T11:29:02.575Z,39.38
2022-11-16T11:30:02.528Z,39.38
2022-11-16T11:31:02.525Z,39.38
2022-11-16T11:32:02.492Z,45.00
2022-11-16T11:33:02.539Z,39.38
2022-11-16T11:34:02.559Z,45.00
2022-11-16T11:35:02.564Z,56.25
2022-11-16T11:36:02.473Z,45.00
2022-11-16T11:37:02.455Z,39.38
2022-11-16T11:38:07.612Z,39.38
2022-11-16T11:39:02.467Z,33.75
2022-11-16T11:40:02.490Z,33.75
2022-11-16T11:41:02.436Z,33.75
2022-11-16T11:42:03.179Z,33.75
2022-11-16T11:43:02.400Z,28.12
2022-11-16T11:44:02.409Z,33.75
2022-11-16T11:45:02.399Z,33.75
2022-11-16T11:46:02.383Z,33.75
2022-11-16T11:48:02.390Z,33.75
2022-11-16T11:49:02.346Z,33.75
2022-11-16T11:50:02.323Z,33.75
2022-11-16T11:51:03.169Z,39.38
2022-11-16T11:52:02.324Z,33.75
2022-11-16T11:53:02.290Z,33.75
2022-11-16T11:54:03.033Z,33.75
2022-11-16T11:55:02.254Z,33.75
2022-11-16T11:56:02.284Z,50.62
2022-11-16T11:57:02.291Z,45.00
2022-11-16T11:58:02.284Z,45.00
2022-11-16T11:59:02.458Z,33.75
2022-11-16T12:00:02.228Z,39.38
2022-11-16T12:01:02.229Z,39.38
2022-11-16T12:02:02.264Z,39.38
2022-11-16T12:03:02.202Z,39.38
2022-11-16T12:04:02.209Z,39.38
2022-11-16T12:05:02.174Z,39.38
2022-11-16T12:06:02.155Z,39.38
2022-11-16T12:07:02.207Z,28.12
2022-11-16T12:08:02.999Z,28.12
2022-11-16T12:09:02.136Z,22.50
2022-11-16T12:10:02.155Z,22.50
2022-11-16T12:11:02.163Z,28.12
2022-11-16T12:12:02.127Z,28.12
2022-11-16T12:13:02.296Z,33.75
2022-11-16T12:14:02.074Z,39.38
2022-11-16T12:15:02.067Z,39.38
2022-11-16T12:16:02.123Z,39.38
2022-11-16T12:17:02.028Z,39.38
2022-11-16T12:18:02.087Z,39.38
2022-11-16T12:19:02.010Z,39.38
2022-11-16T12:20:02.058Z,28.12
2022-11-16T12:21:02.095Z,33.75
2022-11-16T12:22:01.987Z,33.75
2022-11-16T12:23:04.139Z,33.75
2022-11-16T12:24:02.023Z,28.12
2022-11-16T12:25:02.031Z,28.12
2022-11-16T12:26:01.951Z,33.75
2022-11-16T12:27:01.918Z,28.12
2022-11-16T12:28:01.973Z,22.50
2022-11-16T12:29:01.946Z,28.12
2022-11-16T12:30:01.923Z,22.50
2022-11-16T12:31:01.901Z,22.50
2022-11-16T12:32:01.913Z,22.50
2022-11-16T12:33:01.902Z,22.50
2022-11-16T12:34:01.953Z,28.12
2022-11-16T12:35:01.929Z,28.12
2022-11-16T12:36:02.183Z,28.12
2022-11-16T12:37:01.883Z,28.12
2022-11-16T12:38:01.827Z,28.12
2022-11-16T12:39:01.868Z,33.75
2022-11-16T12:40:02.053Z,33.75
2022-11-16T12:41:02.042Z,33.75
2022-11-16T12:42:01.792Z,39.38
2022-11-16T12:43:01.747Z,39.38
2022-11-16T12:44:01.791Z,39.38
2022-11-16T12:45:01.774Z,39.38
2022-11-16T12:46:01.750Z,39.38
2022-11-16T12:47:01.744Z,39.38
2022-11-16T12:48:01.715Z,45.00
2022-11-16T12:49:01.767Z,39.38
2022-11-16T12:50:01.731Z,39.38
2022-11-16T12:51:01.697Z,39.38
2022-11-16T12:52:01.699Z,33.75
2022-11-16T12:53:01.659Z,28.12
2022-11-16T12:54:01.699Z,39.38
2022-11-16T12:55:25.451Z,39.38
2022-11-16T12:56:01.680Z,33.75
2022-11-16T12:57:02.423Z,33.75
2022-11-16T12:58:01.596Z,33.75
2022-11-16T12:59:01.666Z,33.75
2022-11-16T13:00:01.615Z,33.75
2022-11-16T13:01:01.680Z,33.75
2022-11-16T13:02:01.566Z,33.75
2022-11-16T13:03:01.557Z,22.50
2022-11-16T13:04:01.587Z,22.50
2022-11-16T13:05:01.542Z,22.50
2022-11-16T13:06:01.597Z,22.50
2022-11-16T13:07:03.335Z,22.50
2022-11-16T13:08:01.544Z,22.50
2022-11-16T13:09:01.519Z,22.50
2022-11-16T13:10:01.489Z,22.50
2022-11-16T13:11:01.502Z,22.50
2022-11-16T13:12:01.521Z,22.50
2022-11-16T13:13:22.268Z,28.12
2022-11-16T13:14:01.889Z,22.50
2022-11-16T13:15:01.428Z,28.12
2022-11-16T13:16:01.445Z,28.12
2022-11-16T13:17:01.486Z,28.12
2022-11-16T13:18:01.440Z,28.12
2022-11-16T13:19:01.405Z,33.75
2022-11-16T13:20:01.443Z,33.75
2022-11-16T13:21:01.367Z,33.75
2022-11-16T13:22:01.376Z,33.75
2022-11-16T13:23:01.395Z,33.75
2022-11-16T13:24:01.403Z,33.75
2022-11-16T13:25:01.376Z,33.75
2022-11-16T13:26:01.381Z,33.75
2022-11-16T13:27:01.335Z,33.75
2022-11-16T13:28:01.308Z,33.75
2022-11-16T13:29:01.317Z,33.75
2022-11-16T13:30:01.381Z,33.75
2022-11-16T13:31:01.565Z,33.75
2022-11-16T13:32:01.251Z,33.75
2022-11-16T13:33:01.278Z,33.75
2022-11-16T13:34:01.317Z,28.12
2022-11-16T13:35:01.272Z,28.12
2022-11-16T13:36:01.226Z,28.12
2022-11-16T13:37:01.210Z,28.12
2022-11-16T13:38:01.224Z,28.12
2022-11-16T13:39:01.240Z,28.12
2022-11-16T13:40:01.204Z,28.12
2022-11-16T13:41:01.197Z,28.12
2022-11-16T13:42:01.232Z,28.12
2022-11-16T13:43:01.157Z,22.50
2022-11-16T13:44:01.197Z,22.50
2022-11-16T13:45:01.137Z,22.50
2022-11-16T13:46:01.185Z,22.50
2022-11-16T13:47:01.151Z,22.50
2022-11-16T13:48:01.102Z,22.50
2022-11-16T13:49:01.084Z,16.88
2022-11-16T13:50:01.148Z,16.88
2022-11-16T13:51:01.084Z,16.88
2022-11-16T13:52:17.187Z,16.88
2022-11-16T13:54:43.936Z,16.88
2022-11-16T13:55:01.052Z,22.50
2022-11-16T13:56:01.061Z,22.50
2022-11-16T13:57:01.025Z,16.88
2022-11-16T13:58:01.035Z,16.88
2022-11-16T13:59:00.994Z,22.50
2022-11-16T14:00:01.248Z,22.50
2022-11-16T14:01:01.012Z,22.50
2022-11-16T14:02:00.976Z,22.50
2022-11-16T14:03:01.360Z,22.50
2022-11-16T14:04:00.936Z,22.50
2022-11-16T14:05:01.463Z,16.88
2022-11-16T14:06:01.067Z,16.88
2022-11-16T14:07:00.984Z,16.88
2022-11-16T14:08:00.906Z,16.88
2022-11-16T14:09:00.919Z,16.88
2022-11-16T14:10:00.919Z,16.88
2022-11-16T14:11:00.880Z,16.88
2022-11-16T14:12:00.857Z,16.88
2022-11-16T14:13:00.852Z,22.50
2022-11-16T14:14:00.828Z,16.88
2022-11-16T14:15:03.573Z,16.88
2022-11-16T14:16:00.866Z,16.88
2022-11-16T14:17:01.580Z,16.88
2022-11-16T14:18:00.799Z,16.88
2022-11-16T14:19:00.812Z,16.88
2022-11-16T14:20:00.802Z,16.88
2022-11-16T14:21:00.796Z,16.88
2022-11-16T14:22:00.764Z,16.88
2022-11-16T14:23:00.796Z,16.88
2022-11-16T14:24:00.741Z,16.88
2022-11-16T14:25:00.753Z,11.25
2022-11-16T14:26:00.981Z,11.25
2022-11-16T14:27:00.727Z,11.25
2022-11-16T14:28:00.728Z,11.25
2022-11-16T14:29:00.741Z,11.25
2022-11-16T14:30:00.689Z,11.25
2022-11-16T14:31:00.744Z,11.25
2022-11-16T14:32:04.344Z,11.25
2022-11-16T14:33:00.619Z,11.25
2022-11-16T14:34:00.633Z,11.25
2022-11-16T14:35:00.648Z,11.25
2022-11-16T14:36:00.617Z,11.25
2022-11-16T14:37:00.587Z,11.25
2022-11-16T14:38:00.646Z,11.25
2022-11-16T14:39:00.840Z,11.25
2022-11-16T14:40:00.682Z,11.25
2022-11-16T14:41:00.804Z,11.25
2022-11-16T14:42:00.611Z,11.25
2022-11-16T14:43:16.105Z,11.25
2022-11-16T14:44:00.625Z,11.25
2022-11-16T14:45:00.526Z,11.25
2022-11-16T14:46:00.522Z,5.62
2022-11-16T14:47:00.473Z,5.62
2022-11-16T14:48:00.513Z,5.62
2022-11-16T14:49:00.514Z,5.62
2022-11-16T14:50:00.510Z,5.62
2022-11-16T14:51:00.449Z,5.62
2022-11-16T14:52:00.754Z,5.62
2022-11-16T14:53:00.423Z,5.62
2022-11-16T14:54:00.431Z,5.62
2022-11-16T14:55:00.489Z,5.62
2022-11-16T14:56:00.419Z,5.62
2022-11-16T14:57:00.381Z,5.62
2022-11-16T14:58:00.393Z,5.62
2022-11-16T14:59:00.386Z,5.62
2022-11-16T15:00:00.397Z,5.62
2022-11-16T15:01:00.614Z,5.62
2022-11-16T15:02:00.559Z,5.62
2022-11-16T15:03:02.775Z,0.00
2022-11-16T15:04:00.421Z,0.00
2022-11-16T15:05:00.361Z,0.00
2022-11-16T15:06:00.316Z,0.00
2022-11-16T15:07:00.333Z,0.00
2022-11-16T15:08:00.280Z,0.00
2022-11-16T15:09:00.263Z,0.00
2022-11-16T15:10:00.261Z,0.00
2022-11-16T16:27:12.624Z,0.00
2022-11-16T17:07:30.593Z,0.00
2022-11-16T17:07:35.690Z,0.00
2022-11-16T17:08:35.647Z,0.00
2022-11-16T17:09:35.658Z,0.00
2022-11-16T17:10:35.698Z,0.00
2022-11-16T17:11:37.017Z,0.00
2022-11-16T17:50:54.095Z,0.00
2022-11-16T18:05:11.884Z,0.00
2022-11-16T18:05:18.140Z,0.00
2022-11-16T18:06:18.015Z,0.00
2022-11-16T18:07:18.752Z,0.00
2022-11-16T18:08:18.160Z,0.00
2022-11-16T18:09:18.621Z,0.00
2022-11-16T18:10:19.488Z,0.00
2022-11-16T18:11:18.124Z,0.00
2022-11-16T18:12:18.209Z,0.00
2022-11-16T18:13:18.024Z,0.00
2022-11-16T18:14:17.923Z,0.00
2022-11-16T18:15:37.779Z,0.00
2022-11-16T18:16:18.013Z,0.00
2022-11-16T18:17:17.973Z,0.00
2022-11-16T18:18:18.209Z,0.00
2022-11-16T18:19:17.916Z,0.00
2022-11-16T18:20:18.041Z,0.00
2022-11-16T18:21:20.627Z,0.00
2022-11-16T18:22:19.789Z,0.00
2022-11-16T18:23:16.898Z,0.00
2022-11-16T18:24:17.857Z,0.00
2022-11-16T18:59:30.934Z,0.00
2022-11-16T18:59:37.519Z,0.00
2022-11-16T19:00:37.734Z,0.00
2022-11-16T19:38:49.529Z,0.00
2022-11-16T20:21:07.574Z,0.00
2022-11-16T20:21:12.894Z,0.00
2022-11-16T20:22:13.199Z,0.00
2022-11-16T20:23:15.143Z,0.00
2022-11-16T20:24:12.851Z,0.00
2022-11-16T20:25:14.516Z,0.00
2022-11-16T20:26:14.009Z,0.00
2022-11-16T20:27:14.921Z,0.00
2022-11-16T22:06:11.781Z,0.00
2022-11-16T22:07:10.266Z,0.00
2022-11-16T22:08:10.236Z,0.00
2022-11-16T22:09:10.205Z,0.00
2022-11-16T22:10:10.240Z,0.00
2022-11-16T22:11:10.211Z,0.00
2022-11-16T22:12:10.177Z,0.00
2022-11-16T22:13:10.154Z,0.00
2022-11-16T22:14:10.151Z,0.00
2022-11-16T22:15:10.119Z,0.00
2022-11-16T22:16:10.130Z,0.00
2022-11-16T22:17:10.165Z,0.00
2022-11-16T22:18:10.105Z,0.00
2022-11-16T22:19:10.093Z,0.00
2022-11-16T22:20:10.124Z,0.00
2022-11-16T22:21:10.094Z,0.00
2022-11-16T22:22:10.089Z,0.00
2022-11-16T22:23:10.066Z,0.00
2022-11-16T22:24:10.052Z,0.00
2022-11-16T22:25:10.032Z,0.00
2022-11-16T22:26:10.052Z,0.00
2022-11-16T22:27:10.037Z,0.00
2022-11-16T22:28:25.467Z,0.00
2022-11-16T22:29:10.006Z,0.00
2022-11-16T22:30:09.983Z,0.00
2022-11-16T22:31:09.967Z,0.00
2022-11-16T22:32:09.969Z,0.00
2022-11-16T22:33:09.965Z,0.00
2022-11-16T22:34:10.220Z,0.00
2022-11-16T22:35:09.925Z,0.00
2022-11-16T22:36:09.931Z,0.00
2022-11-16T22:37:09.907Z,0.00
2022-11-16T22:38:09.923Z,0.00
2022-11-16T22:39:09.884Z,0.00
2022-11-16T22:40:13.589Z,0.00
2022-11-16T22:41:09.855Z,0.00
2022-11-16T22:42:09.860Z,0.00
2022-11-16T22:43:09.865Z,0.00
2022-11-16T22:44:09.835Z,0.00
2022-11-16T22:45:09.891Z,0.00
2022-11-16T22:46:09.848Z,0.00
2022-11-16T22:47:09.832Z,0.00
2022-11-16T22:48:09.787Z,0.00
2022-11-16T22:49:09.788Z,0.00
2022-11-16T22:50:09.820Z,0.00
2022-11-16T22:51:09.804Z,0.00
2022-11-16T22:52:09.744Z,0.00
2022-11-16T22:53:09.753Z,0.00
2022-11-16T22:54:09.742Z,0.00
2022-11-16T22:55:09.717Z,0.00
2022-11-16T22:56:09.763Z,0.00
2022-11-16T22:57:09.744Z,0.00
2022-11-16T22:58:09.754Z,0.00
2022-11-16T22:59:09.700Z,0.00
2022-11-16T23:00:09.749Z,0.00
2022-11-16T23:01:09.726Z,0.00
2022-11-16T23:02:09.659Z,0.00
2022-11-16T23:03:09.700Z,0.00
2022-11-16T23:04:09.644Z,0.00
2022-11-16T23:05:09.610Z,0.00
2022-11-16T23:06:09.634Z,0.00
2022-11-16T23:07:09.635Z,0.00
2022-11-16T23:08:09.595Z,0.00
2022-11-16T23:09:09.608Z,0.00
2022-11-16T23:10:09.597Z,0.00
2022-11-16T23:11:09.565Z,0.00
2022-11-16T23:12:09.533Z,0.00
2022-11-16T23:13:09.541Z,0.00
2022-11-16T23:14:09.565Z,0.00
2022-11-16T23:15:09.525Z,0.00
2022-11-16T23:16:09.513Z,0.00
2022-11-16T23:17:09.506Z,0.00
2022-11-16T23:18:09.489Z,0.00
2022-11-16T23:19:09.512Z,0.00
2022-11-16T23:20:14.692Z,0.00
2022-11-16T23:21:10.299Z,0.00
2022-11-16T23:22:09.433Z,0.00
2022-11-16T23:23:09.430Z,0.00
2022-11-16T23:24:09.420Z,0.00
2022-11-16T23:25:09.491Z,0.00
2022-11-16T23:26:09.410Z,0.00
2022-11-16T23:27:09.390Z,0.00
2022-11-16T23:28:09.387Z,0.00
2022-11-16T23:29:09.396Z,0.00
2022-11-16T23:30:12.677Z,0.00
2022-11-16T23:31:09.357Z,0.00
2022-11-16T23:32:09.336Z,0.00
2022-11-16T23:33:09.403Z,0.00
2022-11-16T23:34:09.330Z,0.00
2022-11-16T23:35:09.331Z,0.00
2022-11-16T23:36:09.340Z,0.00
2022-11-16T23:37:09.307Z,0.00
2022-11-16T23:38:09.281Z,0.00
2022-11-16T23:39:09.318Z,0.00
2022-11-16T23:40:09.268Z,0.00
2022-11-16T23:41:09.273Z,0.00
2022-11-16T23:42:09.216Z,0.00
2022-11-16T23:43:09.226Z,0.00
2022-11-16T23:44:09.212Z,0.00
2022-11-16T23:45:09.211Z,0.00
2022-11-16T23:46:09.183Z,0.00
2022-11-16T23:47:09.202Z,0.00
2022-11-16T23:48:09.182Z,0.00
2022-11-16T23:49:09.179Z,0.00
2022-11-16T23:50:09.190Z,0.00
2022-11-16T23:51:09.158Z,0.00
2022-11-16T23:52:09.136Z,0.00
2022-11-16T23:53:09.133Z,0.00
2022-11-16T23:54:09.135Z,0.00
2022-11-16T23:55:09.136Z,0.00
2022-11-16T23:56:09.114Z,0.00
2022-11-16T23:57:09.094Z,0.00
2022-11-16T23:58:09.075Z,0.00
2022-11-16T23:59:09.072Z,0.00
